Time;durP1;ratioP1;P1;durP2;ratioP2;P2;SDS_P1;SDS_P2;PMS_P1;PMS_P2;Temp;Humidity;BMP_temperature;BMP_pressure;BME280_temperature;BME280_humidity;BME280_pressure;Samples;Min_cycle;Max_cycle;Signal;HPM_P1;HPM_P2
2023/08/11 00:01:52;;;;;;;2.90;2.60;;;15.20;99.90;;;;;;5057359;28;20191;-82
2023/08/11 00:04:18;;;;;;;2.63;2.53;;;15.20;99.90;;;;;;5057692;28;20180;-76
2023/08/11 00:06:44;;;;;;;2.90;2.70;;;15.10;99.90;;;;;;5057105;28;20254;-77
2023/08/11 00:09:11;;;;;;;2.27;2.17;;;15.10;99.90;;;;;;5057054;28;20530;-75
2023/08/11 00:11:37;;;;;;;2.43;2.33;;;15.10;99.90;;;;;;5056788;28;20231;-75
2023/08/11 00:14:03;;;;;;;3.70;2.40;;;15.10;99.90;;;;;;5039493;28;20180;-79
2023/08/11 00:16:29;;;;;;;2.83;2.50;;;15.00;99.90;;;;;;5073093;28;20190;-77
2023/08/11 00:18:54;;;;;;;2.50;2.40;;;15.00;99.90;;;;;;5079242;28;20240;-82
2023/08/11 00:21:20;;;;;;;2.80;2.67;;;14.90;99.90;;;;;;5062976;28;20513;-78
2023/08/11 00:23:46;;;;;;;2.53;2.43;;;14.70;99.90;;;;;;5055673;28;20546;-78
2023/08/11 00:26:14;;;;;;;2.30;2.20;;;14.90;99.90;;;;;;5057288;28;20175;-79
2023/08/11 00:28:40;;;;;;;3.37;2.30;;;14.80;99.90;;;;;;5063028;28;20318;-80
2023/08/11 00:31:08;;;;;;;2.63;2.50;;;14.80;99.90;;;;;;5071184;28;20186;-80
2023/08/11 00:33:36;;;;;;;3.07;2.77;;;14.70;99.90;;;;;;5063420;28;20264;-79
2023/08/11 00:36:02;;;;;;;2.90;2.70;;;14.70;99.90;;;;;;5044627;28;20583;-79
2023/08/11 00:38:42;;;;;;;3.50;2.50;;;14.80;99.90;;;;;;5062305;28;20807;-81
2023/08/11 00:41:09;;;;;;;2.50;2.40;;;14.80;99.90;;;;;;5062650;28;20179;-80
2023/08/11 00:43:35;;;;;;;2.93;2.77;;;14.80;99.90;;;;;;5062357;28;20176;-81
2023/08/11 00:46:11;;;;;;;2.67;2.47;;;14.80;99.90;;;;;;5063078;28;20168;-80
2023/08/11 00:48:50;;;;;;;2.67;2.43;;;14.70;99.90;;;;;;5045723;28;20194;-78
2023/08/11 00:51:18;;;;;;;2.50;2.40;;;14.80;99.90;;;;;;5054572;28;20202;-82
2023/08/11 00:53:51;;;;;;;2.60;2.50;;;14.70;99.90;;;;;;5070999;28;20192;-79
2023/08/11 00:56:25;;;;;;;2.63;2.43;;;14.70;99.90;;;;;;5043168;28;20179;-82
2023/08/11 00:58:55;;;;;;;2.70;2.50;;;14.80;99.90;;;;;;5068961;28;20259;-80
2023/08/11 01:01:20;;;;;;;2.47;2.37;;;14.80;99.90;;;;;;5054458;28;20153;-83
2023/08/11 01:03:47;;;;;;;2.43;2.33;;;14.80;99.90;;;;;;5072793;28;20183;-79
2023/08/11 01:06:33;;;;;;;2.67;2.50;;;14.80;99.90;;;;;;5046750;28;20195;-81
2023/08/11 01:09:14;;;;;;;2.80;2.70;;;14.80;99.90;;;;;;5061684;28;20281;-79
2023/08/11 01:12:04;;;;;;;2.53;2.43;;;14.80;99.90;;;;;;5062068;28;20171;-82
2023/08/11 01:14:38;;;;;;;2.73;2.53;;;14.80;99.90;;;;;;5064461;28;20179;-80
2023/08/11 01:17:06;;;;;;;2.70;2.60;;;14.80;99.90;;;;;;5063962;28;20196;-78
2023/08/11 01:19:35;;;;;;;2.87;2.63;;;14.70;99.90;;;;;;5042462;28;20495;-79
2023/08/11 01:22:06;;;;;;;2.80;2.60;;;14.70;99.90;;;;;;5065311;28;20185;-79
2023/08/11 01:24:33;;;;;;;2.67;2.57;;;14.70;99.90;;;;;;5069018;28;20171;-81
2023/08/11 01:26:59;;;;;;;2.53;2.43;;;14.60;99.90;;;;;;5058052;28;20542;-81
2023/08/11 01:29:26;;;;;;;2.43;2.33;;;14.70;99.90;;;;;;5060814;28;20180;-79
2023/08/11 01:31:57;;;;;;;2.87;2.67;;;14.60;99.90;;;;;;5061336;28;20226;-82
2023/08/11 01:34:27;;;;;;;2.63;2.53;;;15.30;99.90;;;;;;5062442;28;20260;-80
2023/08/11 01:37:01;;;;;;;2.50;2.40;;;15.00;99.90;;;;;;5064735;28;20210;-81
2023/08/11 01:39:28;;;;;;;2.50;2.40;;;14.70;99.90;;;;;;5060913;28;20209;-79
2023/08/11 01:41:55;;;;;;;2.80;2.60;;;14.60;99.90;;;;;;5061376;28;20220;-80
2023/08/11 01:44:24;;;;;;;2.87;2.63;;;14.70;99.90;;;;;;5060293;28;20291;-79
2023/08/11 01:46:54;;;;;;;2.97;2.77;;;14.70;99.90;;;;;;5057942;28;20205;-77
2023/08/11 01:49:22;;;;;;;2.67;2.57;;;14.60;99.90;;;;;;5059061;28;20171;-76
2023/08/11 01:51:48;;;;;;;2.90;2.80;;;14.50;99.90;;;;;;5058218;28;20179;-75
2023/08/11 01:54:15;;;;;;;2.70;2.60;;;14.50;99.90;;;;;;5056782;28;20183;-77
2023/08/11 01:56:44;;;;;;;3.30;3.00;;;14.60;99.90;;;;;;5039303;28;20309;-77
2023/08/11 01:59:15;;;;;;;2.90;2.63;;;14.60;99.90;;;;;;5060571;28;20176;-81
2023/08/11 02:01:42;;;;;;;2.57;2.47;;;14.60;99.90;;;;;;5060806;28;20546;-83
2023/08/11 02:04:08;;;;;;;3.13;2.90;;;14.30;99.90;;;;;;5059997;28;20186;-82
2023/08/11 02:06:36;;;;;;;2.53;2.37;;;14.60;99.90;;;;;;5068018;28;20168;-80
2023/08/11 02:09:07;;;;;;;2.70;2.50;;;14.70;99.90;;;;;;5042006;28;20187;-80
2023/08/11 02:11:34;;;;;;;2.97;2.77;;;14.60;99.90;;;;;;5060527;28;20156;-78
2023/08/11 02:14:00;;;;;;;3.60;2.63;;;14.60;99.90;;;;;;5042509;28;20291;-80
2023/08/11 02:16:25;;;;;;;2.77;2.57;;;14.60;99.90;;;;;;5060087;28;20667;-78
2023/08/11 02:18:52;;;;;;;2.53;2.40;;;14.60;99.90;;;;;;5060417;28;20249;-80
2023/08/11 02:21:18;;;;;;;2.67;2.57;;;14.70;99.90;;;;;;5060378;28;20178;-80
2023/08/11 02:23:44;;;;;;;2.60;2.50;;;14.60;99.90;;;;;;5069763;28;20197;-84
2023/08/11 02:26:12;;;;;;;3.00;2.70;;;14.60;99.90;;;;;;5041823;28;20172;-81
2023/08/11 02:28:39;;;;;;;3.93;3.00;;;14.60;99.90;;;;;;5070159;28;20218;-79
2023/08/11 02:31:05;;;;;;;2.97;2.77;;;14.50;99.90;;;;;;5062667;28;20217;-78
2023/08/11 02:33:32;;;;;;;3.10;2.90;;;14.50;99.90;;;;;;5058261;28;20175;-82
2023/08/11 02:35:59;;;;;;;3.30;3.10;;;14.40;99.90;;;;;;5059706;28;20172;-80
2023/08/11 02:38:26;;;;;;;2.60;2.50;;;14.60;99.90;;;;;;5061119;28;20237;-81
2023/08/11 02:40:51;;;;;;;3.07;2.80;;;14.50;99.90;;;;;;5069020;28;20172;-79
2023/08/11 02:43:21;;;;;;;3.00;2.80;;;14.60;99.90;;;;;;5074978;28;20214;-78
2023/08/11 02:45:47;;;;;;;3.10;2.97;;;14.50;99.90;;;;;;5040496;28;20176;-80
2023/08/11 02:48:13;;;;;;;2.50;2.40;;;14.60;99.90;;;;;;5058071;28;20176;-79
2023/08/11 02:50:39;;;;;;;3.07;2.70;;;14.60;99.90;;;;;;5057822;28;20179;-78
2023/08/11 02:53:04;;;;;;;3.10;2.90;;;14.50;99.90;;;;;;5058498;28;20171;-78
2023/08/11 02:55:30;;;;;;;2.83;2.63;;;14.50;99.90;;;;;;5057001;28;20176;-82
2023/08/11 02:57:56;;;;;;;3.47;2.87;;;14.40;99.90;;;;;;5064725;28;20258;-81
2023/08/11 03:00:24;;;;;;;2.57;2.40;;;14.40;99.90;;;;;;5061974;28;20236;-83
2023/08/11 03:02:49;;;;;;;2.90;2.53;;;14.30;99.90;;;;;;5056009;28;20668;-77
2023/08/11 03:05:17;;;;;;;3.20;2.90;;;14.30;99.90;;;;;;5059281;28;20198;-80
2023/08/11 03:07:43;;;;;;;3.00;2.70;;;14.20;99.90;;;;;;5059612;28;20182;-79
2023/08/11 03:10:09;;;;;;;4.33;2.80;;;14.20;99.90;;;;;;5059572;28;20235;-81
2023/08/11 03:12:36;;;;;;;2.50;2.40;;;14.10;99.90;;;;;;5057599;28;20172;-77
2023/08/11 03:15:05;;;;;;;2.97;2.77;;;14.10;99.90;;;;;;5058438;28;20210;-80
2023/08/11 03:17:31;;;;;;;3.07;2.87;;;14.10;99.90;;;;;;5057292;28;20207;-80
2023/08/11 03:19:59;;;;;;;3.00;2.80;;;14.10;99.90;;;;;;5057720;28;20180;-82
2023/08/11 03:22:26;;;;;;;3.13;2.63;;;14.00;99.90;;;;;;5061685;28;20176;-79
2023/08/11 03:24:52;;;;;;;2.80;2.70;;;14.20;99.90;;;;;;5061237;28;20183;-78
2023/08/11 03:27:19;;;;;;;2.73;2.53;;;14.30;99.90;;;;;;5060801;28;20176;-81
2023/08/11 03:29:45;;;;;;;3.07;2.70;;;14.40;99.90;;;;;;5062004;28;20160;-79
2023/08/11 03:32:12;;;;;;;4.13;2.70;;;14.30;99.90;;;;;;5060876;28;20178;-80
2023/08/11 03:34:38;;;;;;;2.90;2.73;;;14.70;99.90;;;;;;5063122;28;20240;-77
2023/08/11 03:37:04;;;;;;;3.10;2.90;;;14.30;99.90;;;;;;5066514;28;20246;-78
2023/08/11 03:39:32;;;;;;;3.63;3.20;;;14.30;99.90;;;;;;5051311;28;20180;-76
2023/08/11 03:41:57;;;;;;;3.43;2.87;;;14.30;99.90;;;;;;5075172;28;20178;-77
2023/08/11 03:44:25;;;;;;;3.07;2.87;;;14.30;99.90;;;;;;5075153;28;20182;-77
2023/08/11 03:46:51;;;;;;;2.80;2.60;;;14.30;99.90;;;;;;5056866;28;20667;-82
2023/08/11 03:49:17;;;;;;;3.00;2.80;;;14.20;99.90;;;;;;5057913;28;20178;-80
2023/08/11 03:51:43;;;;;;;3.30;3.00;;;14.30;99.90;;;;;;5057153;28;20195;-79
2023/08/11 03:54:08;;;;;;;3.20;3.00;;;14.20;99.90;;;;;;5057311;28;20191;-79
2023/08/11 03:56:34;;;;;;;2.80;2.60;;;14.20;99.90;;;;;;5057488;28;20255;-79
2023/08/11 03:59:00;;;;;;;3.73;3.23;;;14.20;99.90;;;;;;5064293;28;20210;-79
2023/08/11 04:01:28;;;;;;;3.07;2.77;;;14.20;99.90;;;;;;5071214;28;20191;-76
2023/08/11 04:03:53;;;;;;;2.90;2.80;;;14.20;99.90;;;;;;5077535;28;20168;-81
2023/08/11 04:06:19;;;;;;;5.20;3.10;;;14.30;99.90;;;;;;5079010;28;20160;-81
2023/08/11 04:08:45;;;;;;;3.47;3.20;;;14.20;99.90;;;;;;5061270;28;20171;-78
2023/08/11 04:11:11;;;;;;;3.00;2.80;;;14.20;99.90;;;;;;5056851;28;20189;-78
2023/08/11 04:13:37;;;;;;;2.87;2.67;;;14.20;99.90;;;;;;5055343;28;20524;-78
2023/08/11 04:16:03;;;;;;;3.17;2.97;;;14.20;99.90;;;;;;5056795;28;20187;-81
2023/08/11 04:18:28;;;;;;;3.10;2.90;;;14.30;99.90;;;;;;5068944;28;20219;-81
2023/08/11 04:20:54;;;;;;;2.87;2.67;;;14.30;99.90;;;;;;5059387;28;20574;-78
2023/08/11 04:23:20;;;;;;;3.00;2.70;;;14.30;99.90;;;;;;5064240;28;20183;-81
2023/08/11 04:25:46;;;;;;;3.53;3.27;;;14.50;99.90;;;;;;5074079;28;20255;-78
2023/08/11 04:28:12;;;;;;;2.80;2.60;;;14.30;99.90;;;;;;5060015;28;20242;-79
2023/08/11 04:30:38;;;;;;;3.23;2.93;;;14.30;99.90;;;;;;5057260;28;20168;-79
2023/08/11 04:33:05;;;;;;;2.97;2.77;;;14.30;99.90;;;;;;5056211;28;20239;-82
2023/08/11 04:35:31;;;;;;;3.27;2.90;;;14.30;99.90;;;;;;5057855;28;20187;-78
2023/08/11 04:37:57;;;;;;;4.80;3.00;;;14.20;99.90;;;;;;5056917;28;20677;-79
2023/08/11 04:40:22;;;;;;;2.43;2.33;;;14.20;99.90;;;;;;5056012;28;20182;-77
2023/08/11 04:42:48;;;;;;;5.03;3.07;;;14.30;99.90;;;;;;5055842;28;20183;-78
2023/08/11 04:45:18;;;;;;;2.90;2.70;;;14.30;99.90;;;;;;5054261;28;20230;-78
2023/08/11 04:47:44;;;;;;;3.60;2.73;;;14.20;99.90;;;;;;5055831;28;20172;-80
2023/08/11 04:50:11;;;;;;;3.67;2.63;;;14.20;99.90;;;;;;5055942;28;20533;-79
2023/08/11 04:52:37;;;;;;;2.90;2.70;;;14.20;99.90;;;;;;5065827;28;20643;-80
2023/08/11 04:55:04;;;;;;;2.90;2.73;;;14.20;99.90;;;;;;5062838;28;20253;-79
2023/08/11 04:57:30;;;;;;;4.37;3.07;;;14.20;99.90;;;;;;5058849;28;20195;-78
2023/08/11 04:59:56;;;;;;;3.03;2.83;;;14.10;99.90;;;;;;5058879;28;20175;-79
2023/08/11 05:02:22;;;;;;;5.97;3.07;;;14.20;99.90;;;;;;5066963;28;20172;-81
2023/08/11 05:04:47;;;;;;;4.43;2.80;;;14.20;99.90;;;;;;5070623;28;20236;-80
2023/08/11 05:07:13;;;;;;;3.00;2.80;;;14.10;99.90;;;;;;5039987;28;20187;-77
2023/08/11 05:09:39;;;;;;;4.03;3.23;;;14.10;99.90;;;;;;5055512;28;20176;-81
2023/08/11 05:12:05;;;;;;;3.00;2.80;;;14.10;99.90;;;;;;5055743;28;20179;-81
2023/08/11 05:14:31;;;;;;;4.53;2.87;;;14.20;99.90;;;;;;5065708;28;20174;-82
2023/08/11 05:16:57;;;;;;;3.27;2.90;;;14.20;99.90;;;;;;5061273;28;20230;-81
2023/08/11 05:19:25;;;;;;;3.30;3.00;;;14.30;99.90;;;;;;5055998;28;20651;-81
2023/08/11 05:21:51;;;;;;;2.97;2.77;;;14.50;99.90;;;;;;5055659;28;20257;-80
2023/08/11 05:24:16;;;;;;;3.53;3.33;;;14.40;99.90;;;;;;5055236;28;20203;-82
2023/08/11 05:26:42;;;;;;;3.30;3.00;;;14.40;99.90;;;;;;5055306;28;20194;-83
2023/08/11 05:29:08;;;;;;;4.30;2.70;;;14.50;99.90;;;;;;5055010;28;20276;-82
2023/08/11 05:31:34;;;;;;;3.40;2.70;;;14.50;99.90;;;;;;5055093;28;20172;-81
2023/08/11 05:34:00;;;;;;;2.83;2.63;;;14.60;99.90;;;;;;5055307;28;20653;-81
2023/08/11 05:36:25;;;;;;;5.50;2.80;;;14.70;99.90;;;;;;5054678;28;20508;-81
2023/08/11 05:38:51;;;;;;;3.10;2.80;;;14.80;99.90;;;;;;5055271;28;20590;-80
2023/08/11 05:41:17;;;;;;;3.30;3.10;;;14.80;99.90;;;;;;5053992;28;20183;-80
2023/08/11 05:43:43;;;;;;;3.00;2.80;;;14.90;99.90;;;;;;5066201;28;20181;-81
2023/08/11 05:46:09;;;;;;;4.07;2.83;;;14.90;99.90;;;;;;5064326;28;20180;-81
2023/08/11 05:48:35;;;;;;;4.90;3.03;;;15.00;99.90;;;;;;5055641;28;20197;-82
2023/08/11 05:51:02;;;;;;;4.60;3.07;;;15.10;99.90;;;;;;5055914;28;20176;-82
2023/08/11 05:53:28;;;;;;;3.07;2.87;;;15.10;99.90;;;;;;5037666;28;20538;-81
2023/08/11 05:55:55;;;;;;;7.43;2.80;;;15.20;99.90;;;;;;5068533;28;20172;-82
2023/08/11 05:58:21;;;;;;;2.90;2.70;;;15.30;99.90;;;;;;5064818;28;20242;-81
2023/08/11 06:00:48;;;;;;;2.83;2.63;;;15.40;99.90;;;;;;5057967;28;20622;-83
2023/08/11 06:03:15;;;;;;;3.40;3.10;;;15.40;99.90;;;;;;5056100;28;20172;-84
2023/08/11 06:05:41;;;;;;;2.90;2.70;;;15.50;99.90;;;;;;5064463;28;20773;-82
2023/08/11 06:08:07;;;;;;;2.83;2.63;;;15.60;99.90;;;;;;5061738;28;20166;-79
2023/08/11 06:10:33;;;;;;;4.13;2.80;;;15.70;99.90;;;;;;5055989;28;20254;-77
2023/08/11 06:12:59;;;;;;;3.00;2.80;;;15.80;99.90;;;;;;5055844;28;20199;-79
2023/08/11 06:15:25;;;;;;;2.77;2.57;;;15.80;99.90;;;;;;5054442;28;20674;-79
2023/08/11 06:17:51;;;;;;;4.17;2.70;;;15.90;99.90;;;;;;5054597;28;20204;-79
2023/08/11 06:20:18;;;;;;;3.53;2.90;;;15.90;99.90;;;;;;5054021;28;20172;-79
2023/08/11 06:22:46;;;;;;;3.20;2.90;;;16.00;99.90;;;;;;5054306;28;20180;-78
2023/08/11 06:25:15;;;;;;;3.77;2.97;;;16.10;99.90;;;;;;5065612;28;20190;-77
2023/08/11 06:27:42;;;;;;;2.70;2.50;;;16.40;99.90;;;;;;5056511;28;20223;-79
2023/08/11 06:30:09;;;;;;;4.23;3.17;;;16.30;99.90;;;;;;5053008;28;20178;-77
2023/08/11 06:32:36;;;;;;;2.53;2.40;;;16.30;99.90;;;;;;5053900;28;20164;-78
2023/08/11 06:35:01;;;;;;;2.90;2.70;;;16.30;99.90;;;;;;5057340;28;20199;-78
2023/08/11 06:37:28;;;;;;;3.23;2.87;;;16.40;99.90;;;;;;5065815;28;20199;-81
2023/08/11 06:39:58;;;;;;;2.30;2.20;;;16.60;99.90;;;;;;5054380;28;20180;-78
2023/08/11 06:42:24;;;;;;;4.57;2.50;;;16.50;99.90;;;;;;5054035;28;20198;-79
2023/08/11 06:44:50;;;;;;;2.67;2.40;;;16.70;99.90;;;;;;5054306;28;20179;-78
2023/08/11 06:47:16;;;;;;;4.63;3.33;;;16.70;99.90;;;;;;5061341;28;20175;-79
2023/08/11 06:49:41;;;;;;;2.93;2.67;;;16.80;99.90;;;;;;5056345;28;20171;-79
2023/08/11 06:52:07;;;;;;;2.70;2.50;;;16.80;99.90;;;;;;5054754;28;20496;-80
2023/08/11 06:54:36;;;;;;;2.50;2.30;;;16.90;99.90;;;;;;5037141;28;20288;-78
2023/08/11 06:57:03;;;;;;;2.63;2.43;;;17.00;99.90;;;;;;5061396;28;20214;-78
2023/08/11 06:59:29;;;;;;;2.50;2.30;;;17.10;99.90;;;;;;5061586;28;20174;-79
2023/08/11 07:01:55;;;;;;;2.70;2.50;;;17.20;99.90;;;;;;5057852;28;20313;-79
2023/08/11 07:04:21;;;;;;;2.40;2.30;;;17.30;99.90;;;;;;5057592;28;20590;-78
2023/08/11 07:06:47;;;;;;;2.30;2.20;;;17.50;99.90;;;;;;5056830;28;20248;-78
2023/08/11 07:09:12;;;;;;;3.13;2.80;;;17.60;99.90;;;;;;5057317;28;20179;-79
2023/08/11 07:11:38;;;;;;;2.60;2.40;;;17.70;99.90;;;;;;5057131;28;20230;-79
2023/08/11 07:14:04;;;;;;;2.50;2.30;;;17.90;99.90;;;;;;5057440;28;20196;-80
2023/08/11 07:16:30;;;;;;;2.67;2.57;;;17.90;99.90;;;;;;5057475;28;20179;-79
2023/08/11 07:18:56;;;;;;;2.60;2.50;;;18.10;99.90;;;;;;5058846;28;20172;-80
2023/08/11 07:21:22;;;;;;;2.57;2.33;;;18.30;99.90;;;;;;5063263;28;20172;-79
2023/08/11 07:23:47;;;;;;;2.13;2.03;;;18.30;99.90;;;;;;5065482;28;20720;-80
2023/08/11 07:26:14;;;;;;;2.40;2.20;;;18.30;99.90;;;;;;5057247;28;20186;-79
2023/08/11 07:28:41;;;;;;;2.23;2.10;;;18.50;99.90;;;;;;5056990;28;20310;-79
2023/08/11 07:31:07;;;;;;;2.10;2.00;;;18.60;99.90;;;;;;5058340;28;20183;-80
2023/08/11 07:33:32;;;;;;;2.00;1.90;;;18.60;99.90;;;;;;5065828;28;20183;-79
2023/08/11 07:35:58;;;;;;;2.50;2.30;;;18.70;99.90;;;;;;5063072;28;20184;-80
2023/08/11 07:38:24;;;;;;;2.90;2.60;;;18.70;99.90;;;;;;5057510;28;20211;-79
2023/08/11 07:40:50;;;;;;;2.47;2.27;;;18.80;99.90;;;;;;5057601;28;20172;-80
2023/08/11 07:43:16;;;;;;;2.53;2.33;;;18.80;99.90;;;;;;5058180;28;20230;-80
2023/08/11 07:45:42;;;;;;;4.50;1.93;;;18.90;99.90;;;;;;5062558;28;20164;-80
2023/08/11 07:48:07;;;;;;;2.93;2.13;;;19.00;99.90;;;;;;5074463;28;20179;-78
2023/08/11 07:50:36;;;;;;;2.20;2.10;;;19.00;99.90;;;;;;5061154;28;20175;-79
2023/08/11 07:53:03;;;;;;;2.10;2.00;;;19.00;99.90;;;;;;5057323;28;20254;-79
2023/08/11 07:55:29;;;;;;;2.77;2.30;;;19.10;99.90;;;;;;5038886;28;20176;-80
2023/08/11 07:57:55;;;;;;;2.23;2.13;;;19.30;99.90;;;;;;5056734;28;20214;-79
2023/08/11 08:00:24;;;;;;;2.17;2.07;;;19.40;99.90;;;;;;5059157;28;20264;-79
2023/08/11 08:02:55;;;;;;;2.40;2.10;;;19.50;99.90;;;;;;5057783;28;20172;-79
2023/08/11 08:05:21;;;;;;;2.20;2.10;;;19.60;99.90;;;;;;5038060;28;20183;-81
2023/08/11 08:07:48;;;;;;;2.93;2.00;;;19.60;99.90;;;;;;5056175;28;20175;-79
2023/08/11 08:10:14;;;;;;;2.20;2.00;;;19.70;99.90;;;;;;5055887;28;20176;-80
2023/08/11 08:12:45;;;;;;;2.07;1.97;;;19.80;99.90;;;;;;5055378;28;20180;-80
2023/08/11 08:15:12;;;;;;;2.10;2.00;;;19.90;99.90;;;;;;5056854;28;20183;-77
2023/08/11 08:17:38;;;;;;;2.00;1.90;;;19.90;99.90;;;;;;5056498;28;20674;-79
2023/08/11 08:20:09;;;;;;;1.93;1.83;;;20.00;99.90;;;;;;5056530;28;20172;-79
2023/08/11 08:22:36;;;;;;;2.10;1.90;;;20.00;99.90;;;;;;5056889;28;20495;-79
2023/08/11 08:25:06;;;;;;;2.07;1.97;;;20.10;99.90;;;;;;5039333;28;20171;-78
2023/08/11 08:27:34;;;;;;;1.80;1.80;;;20.10;99.90;;;;;;5055921;28;20349;-80
2023/08/11 08:30:00;;;;;;;1.97;1.83;;;20.10;99.90;;;;;;5055632;28;20172;-81
2023/08/11 08:32:25;;;;;;;2.00;1.90;;;20.20;99.90;;;;;;5055923;28;20190;-81
2023/08/11 08:34:51;;;;;;;1.93;1.83;;;20.20;99.90;;;;;;5056006;28;20259;-80
2023/08/11 08:37:20;;;;;;;2.30;2.20;;;20.30;99.90;;;;;;5055814;28;20206;-79
2023/08/11 08:39:49;;;;;;;2.00;1.90;;;20.40;99.90;;;;;;5055843;28;20647;-80
2023/08/11 08:42:16;;;;;;;1.80;1.70;;;20.50;99.90;;;;;;5056228;28;20179;-80
2023/08/11 08:44:42;;;;;;;1.83;1.73;;;20.60;99.90;;;;;;5057291;28;20291;-80
2023/08/11 08:47:09;;;;;;;1.90;1.80;;;20.60;99.90;;;;;;5055804;28;20626;-82
2023/08/11 08:49:38;;;;;;;2.10;2.00;;;20.80;99.90;;;;;;5065480;28;20172;-80
2023/08/11 08:52:05;;;;;;;2.40;2.30;;;20.20;99.90;;;;;;5061924;28;20195;-81
2023/08/11 08:54:33;;;;;;;2.10;2.00;;;20.80;99.90;;;;;;5073520;28;20260;-79
2023/08/11 08:57:01;;;;;;;2.40;2.30;;;20.80;99.90;;;;;;5061706;28;20211;-80
2023/08/11 08:59:28;;;;;;;2.03;1.97;;;21.50;99.90;;;;;;5056776;28;20160;-80
2023/08/11 09:01:54;;;;;;;2.23;2.13;;;20.80;99.90;;;;;;5060990;28;20301;-81
2023/08/11 09:04:22;;;;;;;2.63;2.53;;;20.80;99.90;;;;;;5067011;28;20181;-79
2023/08/11 09:06:48;;;;;;;1.93;1.83;;;20.80;99.90;;;;;;5066352;28;20215;-80
2023/08/11 09:09:15;;;;;;;1.83;1.80;;;20.90;99.90;;;;;;5060989;28;20182;-81
2023/08/11 09:11:42;;;;;;;2.20;2.00;;;20.80;99.90;;;;;;5065235;28;20615;-78
2023/08/11 09:14:09;;;;;;;2.30;2.20;;;20.80;99.90;;;;;;5066726;28;20180;-79
2023/08/11 09:16:38;;;;;;;2.17;2.07;;;20.70;99.90;;;;;;5057657;28;20168;-79
2023/08/11 09:19:08;;;;;;;2.60;2.50;;;20.80;99.90;;;;;;5054301;28;20198;-78
2023/08/11 09:21:34;;;;;;;2.37;2.00;;;21.00;99.90;;;;;;5054462;28;20226;-80
2023/08/11 09:24:00;;;;;;;1.90;1.80;;;21.20;99.90;;;;;;5055316;28;20527;-78
2023/08/11 09:26:27;;;;;;;2.30;2.10;;;21.10;99.90;;;;;;5054889;28;20200;-78
2023/08/11 09:28:53;;;;;;;3.63;3.33;;;21.00;99.90;;;;;;5050365;28;20227;-79
2023/08/11 09:31:25;;;;;;;1.90;1.77;;;21.00;99.90;;;;;;5065302;28;20247;-79
2023/08/11 09:33:52;;;;;;;2.83;2.20;;;21.00;99.90;;;;;;5054338;28;20710;-80
2023/08/11 09:36:19;;;;;;;3.30;1.90;;;21.00;99.90;;;;;;5036814;28;20186;-80
2023/08/11 09:38:46;;;;;;;1.63;1.63;;;21.10;99.90;;;;;;5054493;28;20200;-82
2023/08/11 09:41:13;;;;;;;2.17;2.07;;;21.20;99.90;;;;;;5055466;28;20171;-79
2023/08/11 09:43:44;;;;;;;2.00;1.90;;;21.30;99.90;;;;;;5054770;28;20175;-78
2023/08/11 09:46:10;;;;;;;2.30;2.20;;;21.30;99.90;;;;;;5053914;28;20163;-80
2023/08/11 09:48:36;;;;;;;2.07;1.97;;;21.40;99.90;;;;;;5054653;28;20172;-79
2023/08/11 09:51:05;;;;;;;2.10;2.00;;;21.30;99.90;;;;;;5054387;28;20165;-79
2023/08/11 09:53:33;;;;;;;1.77;1.70;;;21.50;99.90;;;;;;5053292;28;20176;-79
2023/08/11 09:55:59;;;;;;;2.03;1.90;;;21.50;99.90;;;;;;5054249;28;20229;-79
2023/08/11 09:58:27;;;;;;;2.10;2.00;;;21.60;99.90;;;;;;5054627;28;20200;-79
2023/08/11 10:00:55;;;;;;;1.97;1.87;;;21.50;99.90;;;;;;5059282;28;20628;-80
2023/08/11 10:03:28;;;;;;;2.00;1.90;;;21.50;99.90;;;;;;5056937;28;20176;-79
2023/08/11 10:05:58;;;;;;;2.00;1.90;;;21.50;99.90;;;;;;5054513;28;20631;-78
2023/08/11 10:08:29;;;;;;;1.90;1.80;;;22.20;99.90;;;;;;5054834;28;20176;-78
2023/08/11 10:10:54;;;;;;;1.93;1.83;;;21.50;99.90;;;;;;5036201;28;20210;-79
2023/08/11 10:13:25;;;;;;;2.00;1.90;;;21.60;99.90;;;;;;5054184;28;20577;-79
2023/08/11 10:15:54;;;;;;;1.90;1.80;;;21.80;99.90;;;;;;5053917;28;20225;-79
2023/08/11 10:18:20;;;;;;;1.87;1.77;;;22.00;99.90;;;;;;5053837;28;20226;-79
2023/08/11 10:20:53;;;;;;;1.87;1.77;;;22.10;99.90;;;;;;5035430;28;20222;-78
2023/08/11 10:23:19;;;;;;;1.70;1.70;;;22.10;99.90;;;;;;5053929;28;20221;-79
2023/08/11 10:25:49;;;;;;;1.90;1.80;;;21.90;99.40;;;;;;5054443;28;20168;-79
2023/08/11 10:28:16;;;;;;;1.80;1.70;;;21.90;99.40;;;;;;5064086;28;20226;-79
2023/08/11 10:30:42;;;;;;;1.60;1.60;;;21.90;99.20;;;;;;5056895;28;20234;-79
2023/08/11 10:33:09;;;;;;;1.80;1.70;;;22.00;99.90;;;;;;5054397;28;20696;-78
2023/08/11 10:35:49;;;;;;;2.00;1.90;;;22.10;99.90;;;;;;5056913;28;20266;-79
2023/08/11 10:38:26;;;;;;;2.13;2.03;;;22.20;99.70;;;;;;5061611;28;20210;-79
2023/08/11 10:41:07;;;;;;;2.20;2.10;;;22.20;99.10;;;;;;5056016;28;20640;-79
2023/08/11 10:43:40;;;;;;;1.97;1.87;;;22.40;99.10;;;;;;5055772;28;20159;-77
2023/08/11 10:46:30;;;;;;;2.17;2.03;;;22.50;99.10;;;;;;5056146;28;20639;-79
2023/08/11 10:49:21;;;;;;;2.07;1.97;;;22.50;99.00;;;;;;5070455;28;20167;-79
2023/08/11 10:51:47;;;;;;;2.30;2.10;;;22.60;99.10;;;;;;5054354;28;20207;-79
2023/08/11 10:54:22;;;;;;;2.00;1.90;;;22.70;99.90;;;;;;5036150;28;20204;-79
2023/08/11 10:56:50;;;;;;;1.90;1.80;;;22.80;99.70;;;;;;5053138;28;20209;-79
2023/08/11 10:59:22;;;;;;;1.90;1.80;;;22.90;98.50;;;;;;5053481;28;20188;-79
2023/08/11 11:01:51;;;;;;;3.37;2.00;;;23.10;99.30;;;;;;5053048;28;20188;-80
2023/08/11 11:04:19;;;;;;;2.58;2.38;;;22.80;99.00;;;;;;5053411;28;20176;-79
2023/08/11 11:06:46;;;;;;;1.80;1.70;;;22.70;98.60;;;;;;5053199;28;20180;-80
2023/08/11 11:09:13;;;;;;;1.88;1.77;;;22.60;97.80;;;;;;5054228;28;20635;-80
2023/08/11 11:11:39;;;;;;;2.00;1.90;;;22.60;98.40;;;;;;5069636;28;20180;-79
2023/08/11 11:14:14;;;;;;;1.90;1.80;;;22.60;99.20;;;;;;5059167;28;20218;-78
2023/08/11 11:16:41;;;;;;;2.00;1.90;;;22.70;99.90;;;;;;5053685;28;20634;-80
2023/08/11 11:19:08;;;;;;;2.15;1.70;;;22.70;99.20;;;;;;5053293;28;20176;-77
2023/08/11 11:21:35;;;;;;;2.05;1.88;;;22.70;98.40;;;;;;5052951;28;20175;-79
2023/08/11 11:24:01;;;;;;;1.85;1.75;;;22.70;98.80;;;;;;5053339;28;20176;-79
2023/08/11 11:26:29;;;;;;;2.25;2.00;;;24.10;99.60;;;;;;5054527;28;20179;-80
2023/08/11 11:28:56;;;;;;;2.07;1.97;;;22.80;99.10;;;;;;5052815;28;20215;-79
2023/08/11 11:31:24;;;;;;;1.75;1.67;;;22.90;98.50;;;;;;5034731;28;20180;-79
2023/08/11 11:33:50;;;;;;;1.90;1.70;;;23.00;97.70;;;;;;5053039;28;20167;-79
2023/08/11 11:36:20;;;;;;;1.73;1.70;;;23.10;96.70;;;;;;5057437;28;20172;-82
2023/08/11 11:38:47;;;;;;;1.90;1.80;;;23.10;96.50;;;;;;5056508;28;20188;-80
2023/08/11 11:41:15;;;;;;;1.98;1.88;;;23.00;96.70;;;;;;5054220;28;20167;-78
2023/08/11 11:43:45;;;;;;;1.75;1.60;;;23.00;97.70;;;;;;5056922;28;20168;-79
2023/08/11 11:46:14;;;;;;;1.90;1.80;;;23.00;97.40;;;;;;5061309;28;20209;-81
2023/08/11 11:48:51;;;;;;;1.85;1.77;;;23.00;97.70;;;;;;5069555;28;20168;-79
2023/08/11 11:51:19;;;;;;;2.08;1.98;;;23.00;98.60;;;;;;5062865;28;20156;-80
2023/08/11 11:53:45;;;;;;;1.85;1.75;;;22.90;98.60;;;;;;5057709;28;20203;-79
2023/08/11 11:56:16;;;;;;;2.20;1.77;;;23.00;98.20;;;;;;5058290;28;20197;-79
2023/08/11 11:58:48;;;;;;;1.92;1.70;;;23.00;98.60;;;;;;5056855;28;20294;-78
2023/08/11 12:01:24;;;;;;;1.73;1.73;;;23.10;98.70;;;;;;5072441;28;20163;-79
2023/08/11 12:03:51;;;;;;;2.30;2.10;;;23.10;98.30;;;;;;5056980;28;20176;-78
2023/08/11 12:06:18;;;;;;;2.20;1.77;;;23.20;97.90;;;;;;5056724;28;20172;-79
2023/08/11 12:08:45;;;;;;;1.98;1.88;;;23.20;97.80;;;;;;5056758;28;20180;-78
2023/08/11 12:11:14;;;;;;;2.30;2.03;;;23.20;97.60;;;;;;5056597;28;20176;-79
2023/08/11 12:13:43;;;;;;;1.88;1.77;;;23.10;97.50;;;;;;5068282;28;20187;-79
2023/08/11 12:16:12;;;;;;;2.88;1.70;;;23.30;97.50;;;;;;5039146;28;20206;-79
2023/08/11 12:18:39;;;;;;;2.85;1.90;;;23.30;98.50;;;;;;5056796;28;20294;-81
2023/08/11 12:21:06;;;;;;;1.90;1.80;;;23.40;98.80;;;;;;5056475;28;20203;-79
2023/08/11 12:23:33;;;;;;;2.00;1.90;;;23.40;98.10;;;;;;5064563;28;20171;-79
2023/08/11 12:25:59;;;;;;;1.85;1.77;;;23.50;97.90;;;;;;5069273;28;20646;-78
2023/08/11 12:28:28;;;;;;;1.67;1.67;;;23.50;98.00;;;;;;5056526;28;20357;-80
2023/08/11 12:30:54;;;;;;;1.98;1.88;;;23.60;97.30;;;;;;5056418;28;20199;-80
2023/08/11 12:33:21;;;;;;;2.22;1.75;;;23.50;96.50;;;;;;5057015;28;20258;-80
2023/08/11 12:35:48;;;;;;;1.70;1.60;;;23.50;96.90;;;;;;5063709;28;20168;-78
2023/08/11 12:38:17;;;;;;;2.00;1.90;;;23.50;97.00;;;;;;5044164;28;20302;-80
2023/08/11 12:40:46;;;;;;;1.85;1.75;;;23.50;98.10;;;;;;5060055;28;20168;-78
2023/08/11 12:43:13;;;;;;;1.65;1.65;;;23.40;97.80;;;;;;5059490;28;20198;-79
2023/08/11 12:45:44;;;;;;;1.83;1.73;;;23.40;97.10;;;;;;5056057;28;20190;-80
2023/08/11 12:48:10;;;;;;;2.08;1.98;;;23.50;97.70;;;;;;5056746;28;20188;-80
2023/08/11 12:50:36;;;;;;;2.10;2.00;;;23.50;97.20;;;;;;5057192;28;20210;-79